sensor_id;sensor_type;location;lat;lon;timestamp;temperature;humidity
26583;DHT22;14230;45.382;10.998;2023-05-07T00:00:46;18.00;99.90
26583;DHT22;14230;45.382;10.998;2023-05-07T00:03:14;17.90;99.90
26583;DHT22;14230;45.382;10.998;2023-05-07T00:05:42;17.90;99.90
26583;DHT22;14230;45.382;10.998;2023-05-07T00:08:10;17.90;99.90
26583;DHT22;14230;45.382;10.998;2023-05-07T00:10:37;17.90;99.90
26583;DHT22;14230;45.382;10.998;2023-05-07T00:13:04;17.80;99.90
26583;DHT22;14230;45.382;10.998;2023-05-07T00:15:32;17.80;99.90
26583;DHT22;14230;45.382;10.998;2023-05-07T00:17:59;17.80;99.90
26583;DHT22;14230;45.382;10.998;2023-05-07T00:20:27;17.80;99.90
26583;DHT22;14230;45.382;10.998;2023-05-07T00:22:54;17.80;99.90
26583;DHT22;14230;45.382;10.998;2023-05-07T00:25:22;17.80;99.90
26583;DHT22;14230;45.382;10.998;2023-05-07T00:27:49;17.70;99.90
26583;DHT22;14230;45.382;10.998;2023-05-07T00:30:17;17.70;99.90
26583;DHT22;14230;45.382;10.998;2023-05-07T00:32:44;17.70;99.90
26583;DHT22;14230;45.382;10.998;2023-05-07T00:35:16;17.80;99.90
26583;DHT22;14230;45.382;10.998;2023-05-07T00:37:44;17.70;99.90
26583;DHT22;14230;45.382;10.998;2023-05-07T00:40:11;17.70;99.90
26583;DHT22;14230;45.382;10.998;2023-05-07T00:42:39;17.70;99.90
26583;DHT22;14230;45.382;10.998;2023-05-07T00:45:07;17.60;99.90
26583;DHT22;14230;45.382;10.998;2023-05-07T00:47:35;17.70;99.90
26583;DHT22;14230;45.382;10.998;2023-05-07T00:50:04;17.70;99.90
26583;DHT22;14230;45.382;10.998;2023-05-07T00:52:35;17.70;99.90
26583;DHT22;14230;45.382;10.998;2023-05-07T00:55:06;17.70;99.90
26583;DHT22;14230;45.382;10.998;2023-05-07T00:57:40;17.70;99.90
26583;DHT22;14230;45.382;10.998;2023-05-07T01:00:09;17.80;99.90
26583;DHT22;14230;45.382;10.998;2023-05-07T01:02:38;17.90;99.90
26583;DHT22;14230;45.382;10.998;2023-05-07T01:05:07;18.00;99.90
26583;DHT22;14230;45.382;10.998;2023-05-07T01:07:37;18.10;99.90
26583;DHT22;14230;45.382;10.998;2023-05-07T01:10:06;18.10;99.90
26583;DHT22;14230;45.382;10.998;2023-05-07T01:12:35;18.10;99.90
26583;DHT22;14230;45.382;10.998;2023-05-07T01:15:05;18.10;99.90
26583;DHT22;14230;45.382;10.998;2023-05-07T01:17:37;18.10;99.90
26583;DHT22;14230;45.382;10.998;2023-05-07T01:20:08;18.10;99.90
26583;DHT22;14230;45.382;10.998;2023-05-07T01:22:38;18.10;99.90
26583;DHT22;14230;45.382;10.998;2023-05-07T01:25:07;18.10;99.90
26583;DHT22;14230;45.382;10.998;2023-05-07T01:27:39;18.10;99.90
26583;DHT22;14230;45.382;10.998;2023-05-07T01:30:07;18.20;99.90
26583;DHT22;14230;45.382;10.998;2023-05-07T01:32:40;18.20;99.90
26583;DHT22;14230;45.382;10.998;2023-05-07T01:35:11;18.10;99.90
26583;DHT22;14230;45.382;10.998;2023-05-07T01:37:40;18.10;99.90
26583;DHT22;14230;45.382;10.998;2023-05-07T01:40:08;18.10;99.90
26583;DHT22;14230;45.382;10.998;2023-05-07T01:42:36;18.10;99.90
26583;DHT22;14230;45.382;10.998;2023-05-07T01:45:04;18.00;99.90
26583;DHT22;14230;45.382;10.998;2023-05-07T01:47:32;17.90;99.90
26583;DHT22;14230;45.382;10.998;2023-05-07T01:50:00;17.80;99.90
26583;DHT22;14230;45.382;10.998;2023-05-07T01:52:28;17.70;99.90
26583;DHT22;14230;45.382;10.998;2023-05-07T01:54:56;17.70;99.90
26583;DHT22;14230;45.382;10.998;2023-05-07T01:57:23;17.60;99.90
26583;DHT22;14230;45.382;10.998;2023-05-07T01:59:51;17.50;99.90
26583;DHT22;14230;45.382;10.998;2023-05-07T02:02:18;17.50;99.90
26583;DHT22;14230;45.382;10.998;2023-05-07T02:04:46;17.50;99.90
26583;DHT22;14230;45.382;10.998;2023-05-07T02:07:15;17.50;99.90
26583;DHT22;14230;45.382;10.998;2023-05-07T02:09:43;17.50;99.90
26583;DHT22;14230;45.382;10.998;2023-05-07T02:12:10;17.40;99.90
26583;DHT22;14230;45.382;10.998;2023-05-07T02:14:38;17.30;99.90
26583;DHT22;14230;45.382;10.998;2023-05-07T02:17:05;17.30;99.90
26583;DHT22;14230;45.382;10.998;2023-05-07T02:19:34;17.30;99.90
26583;DHT22;14230;45.382;10.998;2023-05-07T02:22:02;17.20;99.90
26583;DHT22;14230;45.382;10.998;2023-05-07T02:24:30;17.20;99.90
26583;DHT22;14230;45.382;10.998;2023-05-07T02:26:57;17.10;99.90
26583;DHT22;14230;45.382;10.998;2023-05-07T02:29:25;17.00;99.90
26583;DHT22;14230;45.382;10.998;2023-05-07T02:31:53;16.90;99.90
26583;DHT22;14230;45.382;10.998;2023-05-07T02:34:21;17.00;99.90
26583;DHT22;14230;45.382;10.998;2023-05-07T02:36:49;17.00;99.90
26583;DHT22;14230;45.382;10.998;2023-05-07T02:39:20;16.80;99.90
26583;DHT22;14230;45.382;10.998;2023-05-07T02:41:47;16.70;99.90
26583;DHT22;14230;45.382;10.998;2023-05-07T02:44:15;16.60;99.90
26583;DHT22;14230;45.382;10.998;2023-05-07T02:46:43;16.70;99.90
26583;DHT22;14230;45.382;10.998;2023-05-07T02:49:12;16.70;99.90
26583;DHT22;14230;45.382;10.998;2023-05-07T02:51:39;16.70;99.90
26583;DHT22;14230;45.382;10.998;2023-05-07T02:54:12;16.60;99.90
26583;DHT22;14230;45.382;10.998;2023-05-07T02:56:40;16.60;99.90
26583;DHT22;14230;45.382;10.998;2023-05-07T02:59:07;16.60;99.90
26583;DHT22;14230;45.382;10.998;2023-05-07T03:01:39;16.50;99.90
26583;DHT22;14230;45.382;10.998;2023-05-07T03:04:08;16.50;99.90
26583;DHT22;14230;45.382;10.998;2023-05-07T03:06:35;16.50;99.90
26583;DHT22;14230;45.382;10.998;2023-05-07T03:09:03;16.50;99.90
26583;DHT22;14230;45.382;10.998;2023-05-07T03:11:30;16.50;99.90
26583;DHT22;14230;45.382;10.998;2023-05-07T03:13:58;16.50;99.90
26583;DHT22;14230;45.382;10.998;2023-05-07T03:16:25;16.50;99.90
26583;DHT22;14230;45.382;10.998;2023-05-07T03:18:53;16.50;99.90
26583;DHT22;14230;45.382;10.998;2023-05-07T03:21:21;16.50;99.90
26583;DHT22;14230;45.382;10.998;2023-05-07T03:23:49;16.50;99.90
26583;DHT22;14230;45.382;10.998;2023-05-07T03:26:16;16.50;99.90
26583;DHT22;14230;45.382;10.998;2023-05-07T03:28:44;16.60;99.90
26583;DHT22;14230;45.382;10.998;2023-05-07T03:31:14;16.50;99.90
26583;DHT22;14230;45.382;10.998;2023-05-07T03:33:53;16.40;99.90
26583;DHT22;14230;45.382;10.998;2023-05-07T03:36:20;16.50;99.90
26583;DHT22;14230;45.382;10.998;2023-05-07T03:38:48;16.50;99.90
26583;DHT22;14230;45.382;10.998;2023-05-07T03:41:19;16.50;99.90
26583;DHT22;14230;45.382;10.998;2023-05-07T03:43:47;16.40;99.90
26583;DHT22;14230;45.382;10.998;2023-05-07T03:46:15;16.40;99.90
26583;DHT22;14230;45.382;10.998;2023-05-07T03:48:43;16.50;99.90
26583;DHT22;14230;45.382;10.998;2023-05-07T03:51:13;16.50;99.90
26583;DHT22;14230;45.382;10.998;2023-05-07T03:53:40;16.50;99.90
26583;DHT22;14230;45.382;10.998;2023-05-07T03:56:08;16.50;99.90
26583;DHT22;14230;45.382;10.998;2023-05-07T03:58:38;16.50;99.90
26583;DHT22;14230;45.382;10.998;2023-05-07T04:01:09;16.40;99.90
26583;DHT22;14230;45.382;10.998;2023-05-07T04:03:36;16.40;99.90
26583;DHT22;14230;45.382;10.998;2023-05-07T04:06:04;16.50;99.90
26583;DHT22;14230;45.382;10.998;2023-05-07T04:08:34;16.50;99.90
26583;DHT22;14230;45.382;10.998;2023-05-07T04:11:03;16.50;99.90
26583;DHT22;14230;45.382;10.998;2023-05-07T04:13:32;16.60;99.90
26583;DHT22;14230;45.382;10.998;2023-05-07T04:16:03;16.70;99.90
26583;DHT22;14230;45.382;10.998;2023-05-07T04:18:32;16.80;99.90
26583;DHT22;14230;45.382;10.998;2023-05-07T04:20:59;16.70;99.90
26583;DHT22;14230;45.382;10.998;2023-05-07T04:23:27;16.70;99.90
26583;DHT22;14230;45.382;10.998;2023-05-07T04:25:56;16.80;99.90
26583;DHT22;14230;45.382;10.998;2023-05-07T04:28:31;16.70;99.90
26583;DHT22;14230;45.382;10.998;2023-05-07T04:30:58;16.70;99.90
26583;DHT22;14230;45.382;10.998;2023-05-07T04:33:26;16.80;99.90
26583;DHT22;14230;45.382;10.998;2023-05-07T04:35:56;16.90;99.90
26583;DHT22;14230;45.382;10.998;2023-05-07T04:38:23;17.00;99.90
26583;DHT22;14230;45.382;10.998;2023-05-07T04:40:53;16.90;99.90
26583;DHT22;14230;45.382;10.998;2023-05-07T04:43:23;16.90;99.90
26583;DHT22;14230;45.382;10.998;2023-05-07T04:45:51;16.90;99.90
26583;DHT22;14230;45.382;10.998;2023-05-07T04:48:21;17.00;99.90
26583;DHT22;14230;45.382;10.998;2023-05-07T04:50:50;17.20;99.90
26583;DHT22;14230;45.382;10.998;2023-05-07T04:53:19;17.40;99.90
26583;DHT22;14230;45.382;10.998;2023-05-07T04:55:48;17.60;99.90
26583;DHT22;14230;45.382;10.998;2023-05-07T04:58:16;17.80;99.90
26583;DHT22;14230;45.382;10.998;2023-05-07T05:00:46;18.00;99.90
26583;DHT22;14230;45.382;10.998;2023-05-07T05:03:13;18.00;99.90
26583;DHT22;14230;45.382;10.998;2023-05-07T05:05:41;18.00;99.90
26583;DHT22;14230;45.382;10.998;2023-05-07T05:08:09;18.10;99.90
26583;DHT22;14230;45.382;10.998;2023-05-07T05:10:39;18.00;99.90
26583;DHT22;14230;45.382;10.998;2023-05-07T05:13:09;18.00;99.90
26583;DHT22;14230;45.382;10.998;2023-05-07T05:15:36;18.00;99.90
26583;DHT22;14230;45.382;10.998;2023-05-07T05:18:04;17.90;99.90
26583;DHT22;14230;45.382;10.998;2023-05-07T05:20:32;17.90;99.90
26583;DHT22;14230;45.382;10.998;2023-05-07T05:23:00;17.90;99.90
26583;DHT22;14230;45.382;10.998;2023-05-07T05:25:27;18.00;99.90
26583;DHT22;14230;45.382;10.998;2023-05-07T05:27:56;18.10;99.90
26583;DHT22;14230;45.382;10.998;2023-05-07T05:30:24;18.30;99.90
26583;DHT22;14230;45.382;10.998;2023-05-07T05:32:51;18.60;99.90
26583;DHT22;14230;45.382;10.998;2023-05-07T05:35:25;18.70;99.90
26583;DHT22;14230;45.382;10.998;2023-05-07T05:37:53;18.90;99.90
26583;DHT22;14230;45.382;10.998;2023-05-07T05:40:20;19.00;99.90
26583;DHT22;14230;45.382;10.998;2023-05-07T05:42:48;19.20;99.90
26583;DHT22;14230;45.382;10.998;2023-05-07T05:45:16;19.40;99.90
26583;DHT22;14230;45.382;10.998;2023-05-07T05:47:45;19.60;99.90
26583;DHT22;14230;45.382;10.998;2023-05-07T05:50:16;19.80;99.90
26583;DHT22;14230;45.382;10.998;2023-05-07T05:52:44;20.00;99.90
26583;DHT22;14230;45.382;10.998;2023-05-07T05:55:12;20.20;99.90
26583;DHT22;14230;45.382;10.998;2023-05-07T05:57:39;20.40;99.90
26583;DHT22;14230;45.382;10.998;2023-05-07T06:00:08;20.70;99.90
26583;DHT22;14230;45.382;10.998;2023-05-07T06:02:44;21.00;99.90
26583;DHT22;14230;45.382;10.998;2023-05-07T06:05:17;21.20;99.90
26583;DHT22;14230;45.382;10.998;2023-05-07T06:07:47;21.50;99.90
26583;DHT22;14230;45.382;10.998;2023-05-07T06:10:15;21.70;99.90
26583;DHT22;14230;45.382;10.998;2023-05-07T06:12:42;22.10;99.90
26583;DHT22;14230;45.382;10.998;2023-05-07T06:15:10;22.40;99.90
26583;DHT22;14230;45.382;10.998;2023-05-07T06:17:39;22.60;99.90
26583;DHT22;14230;45.382;10.998;2023-05-07T06:20:09;23.00;99.90
26583;DHT22;14230;45.382;10.998;2023-05-07T06:22:38;23.30;99.90
26583;DHT22;14230;45.382;10.998;2023-05-07T06:25:06;23.40;99.90
26583;DHT22;14230;45.382;10.998;2023-05-07T06:27:33;23.40;99.90
26583;DHT22;14230;45.382;10.998;2023-05-07T06:30:01;23.70;99.90
26583;DHT22;14230;45.382;10.998;2023-05-07T06:32:29;24.00;99.90
26583;DHT22;14230;45.382;10.998;2023-05-07T06:34:56;24.30;99.90
26583;DHT22;14230;45.382;10.998;2023-05-07T06:37:24;24.60;99.90
26583;DHT22;14230;45.382;10.998;2023-05-07T06:39:58;25.10;99.90
26583;DHT22;14230;45.382;10.998;2023-05-07T06:42:27;25.60;99.90
26583;DHT22;14230;45.382;10.998;2023-05-07T06:44:59;25.90;99.90
26583;DHT22;14230;45.382;10.998;2023-05-07T06:47:30;26.40;99.90
26583;DHT22;14230;45.382;10.998;2023-05-07T06:49:57;26.30;99.90
26583;DHT22;14230;45.382;10.998;2023-05-07T06:52:29;25.90;99.90
26583;DHT22;14230;45.382;10.998;2023-05-07T06:54:56;25.50;99.90
26583;DHT22;14230;45.382;10.998;2023-05-07T06:57:25;25.30;99.90
26583;DHT22;14230;45.382;10.998;2023-05-07T06:59:53;25.20;99.90
26583;DHT22;14230;45.382;10.998;2023-05-07T07:02:21;25.60;99.90
26583;DHT22;14230;45.382;10.998;2023-05-07T07:04:49;26.10;99.90
26583;DHT22;14230;45.382;10.998;2023-05-07T07:07:17;26.50;99.90
26583;DHT22;14230;45.382;10.998;2023-05-07T07:09:46;26.50;99.90
26583;DHT22;14230;45.382;10.998;2023-05-07T07:12:17;26.20;99.90
26583;DHT22;14230;45.382;10.998;2023-05-07T07:14:44;26.90;99.90
26583;DHT22;14230;45.382;10.998;2023-05-07T07:17:13;27.20;99.90
26583;DHT22;14230;45.382;10.998;2023-05-07T07:19:40;27.70;99.90
26583;DHT22;14230;45.382;10.998;2023-05-07T07:22:08;28.60;99.90
26583;DHT22;14230;45.382;10.998;2023-05-07T07:24:36;29.70;99.90
26583;DHT22;14230;45.382;10.998;2023-05-07T07:27:06;30.00;99.90
26583;DHT22;14230;45.382;10.998;2023-05-07T07:29:34;29.70;99.90
26583;DHT22;14230;45.382;10.998;2023-05-07T07:32:02;30.60;99.90
26583;DHT22;14230;45.382;10.998;2023-05-07T07:34:31;30.80;99.90
26583;DHT22;14230;45.382;10.998;2023-05-07T07:37:00;31.00;99.10
26583;DHT22;14230;45.382;10.998;2023-05-07T07:39:33;31.30;98.50
26583;DHT22;14230;45.382;10.998;2023-05-07T07:42:01;31.70;97.40
26583;DHT22;14230;45.382;10.998;2023-05-07T07:44:29;31.90;96.20
26583;DHT22;14230;45.382;10.998;2023-05-07T07:47:02;31.70;95.50
26583;DHT22;14230;45.382;10.998;2023-05-07T07:49:30;30.30;95.80
26583;DHT22;14230;45.382;10.998;2023-05-07T07:52:01;30.30;96.10
26583;DHT22;14230;45.382;10.998;2023-05-07T07:54:47;31.30;94.80
26583;DHT22;14230;45.382;10.998;2023-05-07T07:57:14;31.40;94.60
26583;DHT22;14230;45.382;10.998;2023-05-07T07:59:42;31.00;95.10
26583;DHT22;14230;45.382;10.998;2023-05-07T08:02:12;29.90;96.00
26583;DHT22;14230;45.382;10.998;2023-05-07T08:04:39;28.70;97.10
26583;DHT22;14230;45.382;10.998;2023-05-07T08:07:09;28.30;98.30
26583;DHT22;14230;45.382;10.998;2023-05-07T08:09:40;27.80;99.20
26583;DHT22;14230;45.382;10.998;2023-05-07T08:12:09;27.70;99.20
26583;DHT22;14230;45.382;10.998;2023-05-07T08:14:38;27.40;99.50
26583;DHT22;14230;45.382;10.998;2023-05-07T08:17:07;27.20;99.90
26583;DHT22;14230;45.382;10.998;2023-05-07T08:19:37;27.20;99.90
26583;DHT22;14230;45.382;10.998;2023-05-07T08:22:08;27.40;99.70
26583;DHT22;14230;45.382;10.998;2023-05-07T08:24:36;27.40;98.10
26583;DHT22;14230;45.382;10.998;2023-05-07T08:27:04;27.40;97.70
26583;DHT22;14230;45.382;10.998;2023-05-07T08:29:32;27.40;99.20
26583;DHT22;14230;45.382;10.998;2023-05-07T08:32:00;27.30;99.90
26583;DHT22;14230;45.382;10.998;2023-05-07T08:34:27;27.80;99.20
26583;DHT22;14230;45.382;10.998;2023-05-07T08:36:56;28.50;98.30
26583;DHT22;14230;45.382;10.998;2023-05-07T08:39:24;29.30;97.30
26583;DHT22;14230;45.382;10.998;2023-05-07T08:41:55;30.20;94.80
26583;DHT22;14230;45.382;10.998;2023-05-07T08:44:26;30.80;94.00
26583;DHT22;14230;45.382;10.998;2023-05-07T08:46:58;31.60;94.00
26583;DHT22;14230;45.382;10.998;2023-05-07T08:49:28;31.40;93.90
26583;DHT22;14230;45.382;10.998;2023-05-07T08:51:55;31.90;91.70
26583;DHT22;14230;45.382;10.998;2023-05-07T08:54:24;31.80;91.40
26583;DHT22;14230;45.382;10.998;2023-05-07T08:56:53;32.70;90.10
26583;DHT22;14230;45.382;10.998;2023-05-07T08:59:20;32.60;89.60
26583;DHT22;14230;45.382;10.998;2023-05-07T09:01:48;32.90;89.30
26583;DHT22;14230;45.382;10.998;2023-05-07T09:04:16;32.90;89.00
26583;DHT22;14230;45.382;10.998;2023-05-07T09:06:45;33.30;88.20
26583;DHT22;14230;45.382;10.998;2023-05-07T09:09:16;33.60;87.70
26583;DHT22;14230;45.382;10.998;2023-05-07T09:11:46;33.70;87.00
26583;DHT22;14230;45.382;10.998;2023-05-07T09:14:16;33.70;85.80
26583;DHT22;14230;45.382;10.998;2023-05-07T09:16:46;33.90;84.60
26583;DHT22;14230;45.382;10.998;2023-05-07T09:19:14;33.20;84.90
26583;DHT22;14230;45.382;10.998;2023-05-07T09:21:45;32.40;87.10
26583;DHT22;14230;45.382;10.998;2023-05-07T09:24:15;32.10;85.70
26583;DHT22;14230;45.382;10.998;2023-05-07T09:26:44;32.00;85.40
26583;DHT22;14230;45.382;10.998;2023-05-07T09:29:15;31.70;86.80
26583;DHT22;14230;45.382;10.998;2023-05-07T09:31:47;31.50;87.30
26583;DHT22;14230;45.382;10.998;2023-05-07T09:34:16;31.00;89.00
26583;DHT22;14230;45.382;10.998;2023-05-07T09:36:45;30.90;90.00
26583;DHT22;14230;45.382;10.998;2023-05-07T09:39:13;30.60;90.80
26583;DHT22;14230;45.382;10.998;2023-05-07T09:41:45;30.60;91.10
26583;DHT22;14230;45.382;10.998;2023-05-07T09:44:21;30.90;90.40
26583;DHT22;14230;45.382;10.998;2023-05-07T09:46:54;30.90;90.50
26583;DHT22;14230;45.382;10.998;2023-05-07T09:49:30;31.20;90.20
26583;DHT22;14230;45.382;10.998;2023-05-07T09:52:04;31.80;86.80
26583;DHT22;14230;45.382;10.998;2023-05-07T09:54:43;32.20;86.50
26583;DHT22;14230;45.382;10.998;2023-05-07T09:57:13;31.90;86.20
26583;DHT22;14230;45.382;10.998;2023-05-07T09:59:45;31.50;87.60
26583;DHT22;14230;45.382;10.998;2023-05-07T10:02:18;31.50;88.10
26583;DHT22;14230;45.382;10.998;2023-05-07T10:04:50;31.70;88.10
26583;DHT22;14230;45.382;10.998;2023-05-07T10:07:22;31.50;87.70
26583;DHT22;14230;45.382;10.998;2023-05-07T10:09:55;31.70;86.50
26583;DHT22;14230;45.382;10.998;2023-05-07T10:12:32;31.70;85.90
26583;DHT22;14230;45.382;10.998;2023-05-07T10:15:11;32.10;85.30
26583;DHT22;14230;45.382;10.998;2023-05-07T10:17:42;32.00;85.50
26583;DHT22;14230;45.382;10.998;2023-05-07T10:20:11;32.30;84.50
26583;DHT22;14230;45.382;10.998;2023-05-07T10:22:44;32.60;82.00
26583;DHT22;14230;45.382;10.998;2023-05-07T10:25:18;33.20;80.00
26583;DHT22;14230;45.382;10.998;2023-05-07T10:27:49;32.90;79.30
26583;DHT22;14230;45.382;10.998;2023-05-07T10:30:26;33.40;77.60
26583;DHT22;14230;45.382;10.998;2023-05-07T10:33:04;33.40;77.50
26583;DHT22;14230;45.382;10.998;2023-05-07T10:35:43;32.80;77.40
26583;DHT22;14230;45.382;10.998;2023-05-07T10:38:13;32.90;75.70
26583;DHT22;14230;45.382;10.998;2023-05-07T10:40:43;32.30;77.00
26583;DHT22;14230;45.382;10.998;2023-05-07T10:43:14;32.10;76.70
26583;DHT22;14230;45.382;10.998;2023-05-07T10:46:24;31.90;77.50
26583;DHT22;14230;45.382;10.998;2023-05-07T10:49:12;31.90;77.60
26583;DHT22;14230;45.382;10.998;2023-05-07T10:52:16;31.70;77.40
26583;DHT22;14230;45.382;10.998;2023-05-07T11:02:01;31.60;77.60
26583;DHT22;14230;45.382;10.998;2023-05-07T11:04:40;31.00;80.50
26583;DHT22;14230;45.382;10.998;2023-05-07T11:07:30;30.50;80.50
26583;DHT22;14230;45.382;10.998;2023-05-07T11:10:09;29.90;84.30
26583;DHT22;14230;45.382;10.998;2023-05-07T11:18:03;29.20;85.60
26583;DHT22;14230;45.382;10.998;2023-05-07T11:26:12;28.40;85.30
26583;DHT22;14230;45.382;10.998;2023-05-07T11:28:43;27.80;86.60
26583;DHT22;14230;45.382;10.998;2023-05-07T11:31:11;27.70;88.90
26583;DHT22;14230;45.382;10.998;2023-05-07T11:33:40;27.40;90.50
26583;DHT22;14230;45.382;10.998;2023-05-07T11:36:13;27.40;90.70
26583;DHT22;14230;45.382;10.998;2023-05-07T11:38:46;27.60;90.90
26583;DHT22;14230;45.382;10.998;2023-05-07T11:41:13;27.60;90.50
26583;DHT22;14230;45.382;10.998;2023-05-07T11:43:54;27.60;90.50
26583;DHT22;14230;45.382;10.998;2023-05-07T11:46:23;27.50;90.60
26583;DHT22;14230;45.382;10.998;2023-05-07T11:48:51;27.50;90.40
26583;DHT22;14230;45.382;10.998;2023-05-07T11:51:20;27.30;90.60
26583;DHT22;14230;45.382;10.998;2023-05-07T11:53:48;27.40;91.10
26583;DHT22;14230;45.382;10.998;2023-05-07T11:56:18;27.40;91.30
26583;DHT22;14230;45.382;10.998;2023-05-07T11:58:46;27.60;90.60
26583;DHT22;14230;45.382;10.998;2023-05-07T12:01:15;27.60;90.70
26583;DHT22;14230;45.382;10.998;2023-05-07T12:03:44;27.60;90.40
26583;DHT22;14230;45.382;10.998;2023-05-07T12:06:15;27.50;90.70
26583;DHT22;14230;45.382;10.998;2023-05-07T12:08:44;27.30;90.70
26583;DHT22;14230;45.382;10.998;2023-05-07T12:11:24;27.20;91.40
26583;DHT22;14230;45.382;10.998;2023-05-07T12:13:54;27.10;91.20
26583;DHT22;14230;45.382;10.998;2023-05-07T12:16:26;27.00;91.50
26583;DHT22;14230;45.382;10.998;2023-05-07T12:18:54;27.00;91.50
26583;DHT22;14230;45.382;10.998;2023-05-07T12:21:22;27.00;92.10
26583;DHT22;14230;45.382;10.998;2023-05-07T12:23:50;27.10;91.30
26583;DHT22;14230;45.382;10.998;2023-05-07T12:26:19;27.30;91.00
26583;DHT22;14230;45.382;10.998;2023-05-07T12:28:50;27.30;91.50
26583;DHT22;14230;45.382;10.998;2023-05-07T12:31:17;27.10;90.70
26583;DHT22;14230;45.382;10.998;2023-05-07T12:33:45;26.90;91.50
26583;DHT22;14230;45.382;10.998;2023-05-07T12:36:13;26.70;91.30
26583;DHT22;14230;45.382;10.998;2023-05-07T12:38:41;26.50;92.10
26583;DHT22;14230;45.382;10.998;2023-05-07T12:41:10;26.60;92.10
26583;DHT22;14230;45.382;10.998;2023-05-07T12:43:38;26.60;91.60
26583;DHT22;14230;45.382;10.998;2023-05-07T12:46:07;26.80;92.00
26583;DHT22;14230;45.382;10.998;2023-05-07T12:48:43;26.80;92.30
26583;DHT22;14230;45.382;10.998;2023-05-07T12:51:12;26.80;92.60
26583;DHT22;14230;45.382;10.998;2023-05-07T12:53:42;26.70;93.20
26583;DHT22;14230;45.382;10.998;2023-05-07T12:56:10;26.70;92.30
26583;DHT22;14230;45.382;10.998;2023-05-07T12:58:38;26.80;92.80
26583;DHT22;14230;45.382;10.998;2023-05-07T13:01:07;26.70;93.20
26583;DHT22;14230;45.382;10.998;2023-05-07T13:03:36;26.80;93.40
26583;DHT22;14230;45.382;10.998;2023-05-07T13:06:08;26.90;92.60
26583;DHT22;14230;45.382;10.998;2023-05-07T13:08:41;26.70;92.30
26583;DHT22;14230;45.382;10.998;2023-05-07T13:11:11;26.70;92.70
26583;DHT22;14230;45.382;10.998;2023-05-07T13:13:40;26.90;93.20
26583;DHT22;14230;45.382;10.998;2023-05-07T13:16:09;26.80;92.20
26583;DHT22;14230;45.382;10.998;2023-05-07T13:18:39;26.70;93.70
26583;DHT22;14230;45.382;10.998;2023-05-07T13:21:07;26.50;93.00
26583;DHT22;14230;45.382;10.998;2023-05-07T13:23:34;26.60;93.70
26583;DHT22;14230;45.382;10.998;2023-05-07T13:26:02;26.60;93.40
26583;DHT22;14230;45.382;10.998;2023-05-07T13:28:37;26.50;93.70
26583;DHT22;14230;45.382;10.998;2023-05-07T13:31:05;26.50;93.20
26583;DHT22;14230;45.382;10.998;2023-05-07T13:33:32;26.60;92.80
26583;DHT22;14230;45.382;10.998;2023-05-07T13:36:00;26.70;93.20
26583;DHT22;14230;45.382;10.998;2023-05-07T13:38:27;26.80;92.20
26583;DHT22;14230;45.382;10.998;2023-05-07T13:40:55;27.00;92.50
26583;DHT22;14230;45.382;10.998;2023-05-07T13:43:22;27.10;92.40
26583;DHT22;14230;45.382;10.998;2023-05-07T13:45:50;27.00;92.10
26583;DHT22;14230;45.382;10.998;2023-05-07T13:48:17;27.00;92.30
26583;DHT22;14230;45.382;10.998;2023-05-07T13:50:45;27.10;93.00
26583;DHT22;14230;45.382;10.998;2023-05-07T13:53:12;27.30;93.00
26583;DHT22;14230;45.382;10.998;2023-05-07T13:55:39;27.30;93.00
26583;DHT22;14230;45.382;10.998;2023-05-07T13:58:07;27.30;92.70
26583;DHT22;14230;45.382;10.998;2023-05-07T14:00:34;27.40;92.70
26583;DHT22;14230;45.382;10.998;2023-05-07T14:03:04;27.50;93.00
26583;DHT22;14230;45.382;10.998;2023-05-07T14:05:32;27.40;93.40
26583;DHT22;14230;45.382;10.998;2023-05-07T14:07:59;27.20;94.10
26583;DHT22;14230;45.382;10.998;2023-05-07T14:10:27;27.00;93.20
26583;DHT22;14230;45.382;10.998;2023-05-07T14:12:54;27.00;92.70
26583;DHT22;14230;45.382;10.998;2023-05-07T14:15:22;27.10;92.90
26583;DHT22;14230;45.382;10.998;2023-05-07T14:17:49;27.30;92.90
26583;DHT22;14230;45.382;10.998;2023-05-07T14:20:17;27.30;92.50
26583;DHT22;14230;45.382;10.998;2023-05-07T14:22:44;27.30;92.80
26583;DHT22;14230;45.382;10.998;2023-05-07T14:25:12;27.30;93.30
26583;DHT22;14230;45.382;10.998;2023-05-07T14:27:43;27.20;93.60
26583;DHT22;14230;45.382;10.998;2023-05-07T14:30:10;27.20;93.10
26583;DHT22;14230;45.382;10.998;2023-05-07T14:32:40;27.40;92.60
26583;DHT22;14230;45.382;10.998;2023-05-07T14:35:08;27.40;93.00
26583;DHT22;14230;45.382;10.998;2023-05-07T14:37:37;27.60;92.50
26583;DHT22;14230;45.382;10.998;2023-05-07T14:40:05;27.70;92.80
26583;DHT22;14230;45.382;10.998;2023-05-07T14:42:33;27.50;92.00
26583;DHT22;14230;45.382;10.998;2023-05-07T14:45:01;27.50;92.30
26583;DHT22;14230;45.382;10.998;2023-05-07T14:47:28;27.50;92.20
26583;DHT22;14230;45.382;10.998;2023-05-07T14:49:56;27.50;92.10
26583;DHT22;14230;45.382;10.998;2023-05-07T14:52:24;27.40;92.60
26583;DHT22;14230;45.382;10.998;2023-05-07T14:54:53;27.30;93.10
26583;DHT22;14230;45.382;10.998;2023-05-07T14:57:20;27.20;92.50
26583;DHT22;14230;45.382;10.998;2023-05-07T14:59:48;27.10;93.60
26583;DHT22;14230;45.382;10.998;2023-05-07T15:02:16;27.00;95.00
26583;DHT22;14230;45.382;10.998;2023-05-07T15:04:47;26.90;93.80
26583;DHT22;14230;45.382;10.998;2023-05-07T15:07:15;26.80;94.50
26583;DHT22;14230;45.382;10.998;2023-05-07T15:09:43;26.90;95.00
26583;DHT22;14230;45.382;10.998;2023-05-07T15:12:11;26.80;95.30
26583;DHT22;14230;45.382;10.998;2023-05-07T15:14:39;26.90;96.20
26583;DHT22;14230;45.382;10.998;2023-05-07T15:17:06;26.90;96.10
26583;DHT22;14230;45.382;10.998;2023-05-07T15:19:34;26.80;96.10
26583;DHT22;14230;45.382;10.998;2023-05-07T15:22:02;26.90;96.00
26583;DHT22;14230;45.382;10.998;2023-05-07T15:24:30;26.90;96.40
26583;DHT22;14230;45.382;10.998;2023-05-07T15:26:58;27.00;96.10
26583;DHT22;14230;45.382;10.998;2023-05-07T15:29:25;27.10;95.90
26583;DHT22;14230;45.382;10.998;2023-05-07T15:31:53;27.10;94.70
26583;DHT22;14230;45.382;10.998;2023-05-07T15:34:22;27.10;94.20
26583;DHT22;14230;45.382;10.998;2023-05-07T15:36:51;27.10;94.40
26583;DHT22;14230;45.382;10.998;2023-05-07T15:39:18;27.20;94.40
26583;DHT22;14230;45.382;10.998;2023-05-07T15:41:46;27.20;94.10
26583;DHT22;14230;45.382;10.998;2023-05-07T15:44:13;27.30;94.00
26583;DHT22;14230;45.382;10.998;2023-05-07T15:46:41;27.30;95.00